KRNH/RNH METAR and TAF weather

Enter ICAO airport designator
Station Type Date Time Source
KRNH METAR 2021/05/14 13:35 UTC NOAA

KRNH 141335Z AUTO 16005KT 10SM OVC100 13/00 A3023 RMK AO2 T01261004


Station Type Date Time Source
KRNH Decoded METAR 2021/05/14 13:35 UTC NOAA

New Richmond, New Richmond Municipal Airport, WI, United States (KRNH) 45-08-54N 092-32-17W
May 14, 2021 - 09:35 AM EDT / 2021.05.14 1335 UTC
Wind: from the SSE (160 degrees) at 6 MPH (5 KT):0
Visibility: 10 mile(s):0
Sky conditions: overcast
Temperature: 54.7 F (12.6 C)
Dew Point: 31.3 F (-0.4 C)
Relative Humidity: 40%
Pressure (altimeter): 30.23 in. Hg (1023 hPa)
ob: KRNH 141335Z AUTO 16005KT 10SM OVC100 13/00 A3023 RMK AO2 T01261004
cycle: 13

Station Type Date Time Source
KRNH TAF 2021/05/14 12:30 UTC NOAA

TAF KRNH 141127Z 1412/1512 16005KT P6SM SCT100 OVC250
FM141700 18009KT P6SM OVC080
FM142300 16008KT P6SM -SHRA OVC050
FM150300 16006KT P6SM SCT035 BKN050
TEMPO 1505/1509 6SM -SHRA BKN035 OVC050
FM150900 15005KT 6SM BR SCT010 BKN012

Example: see airport list